Weather at Katanning Airport

Public forecast

Using degrees Celsius for public forecast. Weather courtesy of forecast.io.

Closest aviation weather report (METAR) to Katanning Airport

Closest report is Albany Airport, 74.2 nm (137.3 km) S. Retrieved 2020/11/28 16:00 UTC (28 minutes ago):

YABA 281600Z AUTO 01004KT 9999 // NCD 08/07 Q1016

Closest aviation forecast (TAF) to Katanning Airport

Closest forecast is Busselton Regional Airport, 111.5 nm (206.4 km) W. Retrieved 2020/11/28 12:00 UTC (4 hours ago):

TAF YBLN 281108Z 2812/2912 20010KT CAVOK FM281400 15004KT CAVOK FM290300 27012KT 9999 SCT040 FM290700 27012KT 9999 -RA FEW030 FM290900 28009KT 9999 -SHRA SCT020